Time;durP1;ratioP1;P1;durP2;ratioP2;P2;SDS_P1;SDS_P2;PMS_P1;PMS_P2;Temp;Humidity;BMP_temperature;BMP_pressure;BME280_temperature;BME280_humidity;BME280_pressure;Samples;Min_cycle;Max_cycle;Signal;HPM_P1;HPM_P2
2021/01/05 00:00:24;;;;;;;20.70;12.47;;;;;;;;;;4962520;28;20621;-87
2021/01/05 00:03:28;;;;;;;20.17;12.33;;;;;;;;;;4974159;28;20553;-87
2021/01/05 00:06:33;;;;;;;21.70;12.63;;;;;;;;;;4955054;28;21252;-87
2021/01/05 00:09:37;;;;;;;20.80;12.40;;;;;;;;;;4962113;28;20655;-87
2021/01/05 00:12:41;;;;;;;23.97;13.63;;;;;;;;;;4962591;28;20605;-87
2021/01/05 00:15:46;;;;;;;22.13;12.40;;;;;;;;;;4984127;28;20658;-87
2021/01/05 00:18:50;;;;;;;25.00;14.97;;;;;;;;;;4973042;28;20617;-87
2021/01/05 00:21:54;;;;;;;21.50;13.17;;;;;;;;;;4983926;28;20621;-87
2021/01/05 00:24:58;;;;;;;21.60;13.07;;;;;;;;;;4968870;28;20613;-87
2021/01/05 00:28:02;;;;;;;21.33;12.03;;;;;;;;;;4962617;28;20592;-87
2021/01/05 00:31:06;;;;;;;23.60;13.53;;;;;;;;;;4968697;28;20638;-87
2021/01/05 00:34:11;;;;;;;22.47;13.63;;;;;;;;;;4968775;28;20625;-87
2021/01/05 00:37:16;;;;;;;19.30;12.47;;;;;;;;;;4956369;28;20648;-87
2021/01/05 00:40:23;;;;;;;21.77;13.17;;;;;;;;;;4961583;28;20620;-87
2021/01/05 00:43:27;;;;;;;23.53;13.53;;;;;;;;;;4983970;28;20596;-87
2021/01/05 00:46:32;;;;;;;20.00;12.77;;;;;;;;;;4947616;28;20642;-87
2021/01/05 00:49:36;;;;;;;23.07;13.63;;;;;;;;;;4983781;28;21250;-87
2021/01/05 00:52:40;;;;;;;21.90;13.30;;;;;;;;;;4983783;28;20601;-87
2021/01/05 00:55:45;;;;;;;22.93;13.70;;;;;;;;;;4972630;28;20649;-88
2021/01/05 00:58:49;;;;;;;21.30;12.97;;;;;;;;;;4983869;28;20608;-87
2021/01/05 01:01:54;;;;;;;26.30;15.63;;;;;;;;;;4971664;28;20622;-87
2021/01/05 01:05:10;;;;;;;22.97;13.97;;;;;;;;;;4963994;28;20590;-88
2021/01/05 01:08:17;;;;;;;25.00;14.73;;;;;;;;;;4961267;28;20594;-87
2021/01/05 01:11:26;;;;;;;26.03;14.97;;;;;;;;;;4961891;28;20590;-87
2021/01/05 01:14:31;;;;;;;22.43;13.33;;;;;;;;;;4972400;28;20933;-87
2021/01/05 01:17:36;;;;;;;27.87;14.97;;;;;;;;;;4982830;28;20593;-87
2021/01/05 01:20:40;;;;;;;27.87;14.73;;;;;;;;;;4971819;28;20589;-88
2021/01/05 01:23:46;;;;;;;22.03;13.60;;;;;;;;;;4982996;28;20622;-87
2021/01/05 01:26:52;;;;;;;25.77;15.50;;;;;;;;;;4971973;28;20656;-87
2021/01/05 01:29:56;;;;;;;26.10;14.97;;;;;;;;;;4972017;28;20622;-87
2021/01/05 01:33:00;;;;;;;25.87;14.87;;;;;;;;;;4960803;28;20601;-88
2021/01/05 01:36:08;;;;;;;25.10;15.00;;;;;;;;;;4961550;28;20637;-87
2021/01/05 01:39:12;;;;;;;30.97;15.33;;;;;;;;;;4960960;28;20901;-87
2021/01/05 01:42:19;;;;;;;26.23;14.83;;;;;;;;;;4974935;28;20625;-88
2021/01/05 01:45:24;;;;;;;27.87;15.43;;;;;;;;;;4958581;28;20656;-87
2021/01/05 01:48:31;;;;;;;30.70;16.13;;;;;;;;;;4971948;28;21197;-87
2021/01/05 01:51:36;;;;;;;27.63;15.80;;;;;;;;;;4971600;28;20633;-87
2021/01/05 01:55:04;;;;;;;24.10;14.57;;;;;;;;;;4970460;28;20624;-87
2021/01/05 01:58:10;;;;;;;28.37;15.93;;;;;;;;;;4982431;28;20608;-87
2021/01/05 02:01:30;;;;;;;27.80;15.23;;;;;;;;;;4952179;28;20610;-87
2021/01/05 02:04:48;;;;;;;29.13;15.97;;;;;;;;;;4941347;28;20597;-87
2021/01/05 02:08:15;;;;;;;27.00;15.23;;;;;;;;;;4952319;28;20543;-87
2021/01/05 02:11:48;;;;;;;29.90;16.07;;;;;;;;;;4956017;28;21030;-87
2021/01/05 02:14:57;;;;;;;30.00;15.97;;;;;;;;;;4960552;28;20597;-87
2021/01/05 02:18:33;;;;;;;27.80;15.50;;;;;;;;;;4982276;28;20554;-87
2021/01/05 02:21:54;;;;;;;34.23;16.23;;;;;;;;;;4952449;28;20859;-87
2021/01/05 02:25:11;;;;;;;30.53;15.60;;;;;;;;;;4950732;28;20627;-87
2021/01/05 02:28:22;;;;;;;28.67;15.77;;;;;;;;;;4970653;28;20593;-87
2021/01/05 02:31:38;;;;;;;27.57;15.37;;;;;;;;;;4967243;28;20635;-87
2021/01/05 02:35:09;;;;;;;27.60;15.07;;;;;;;;;;4941049;28;20559;-87
2021/01/05 02:38:50;;;;;;;27.77;15.07;;;;;;;;;;4970113;28;20582;-87
2021/01/05 02:42:27;;;;;;;27.73;15.87;;;;;;;;;;4973620;28;20530;-87
2021/01/05 02:46:14;;;;;;;33.03;16.13;;;;;;;;;;4970043;28;20645;-87
2021/01/05 02:49:46;;;;;;;32.37;16.37;;;;;;;;;;4972913;28;20621;-87
2021/01/05 02:53:40;;;;;;;25.87;14.77;;;;;;;;;;4954240;28;20539;-87
2021/01/05 02:57:11;;;;;;;29.57;14.87;;;;;;;;;;4974612;28;20660;-87
2021/01/05 03:00:57;;;;;;;30.63;15.37;;;;;;;;;;4970403;28;20942;-87
2021/01/05 03:04:21;;;;;;;34.20;15.83;;;;;;;;;;4955462;28;20625;-87
2021/01/05 03:07:46;;;;;;;33.50;15.97;;;;;;;;;;4982379;28;20553;-87
2021/01/05 03:11:48;;;;;;;30.47;15.97;;;;;;;;;;4900932;28;21259;-87
2021/01/05 03:16:01;;;;;;;30.53;15.40;;;;;;;;;;4984534;28;20645;-87
2021/01/05 03:19:36;;;;;;;30.70;14.53;;;;;;;;;;4980386;28;20589;-87
2021/01/05 03:23:03;;;;;;;30.43;15.77;;;;;;;;;;4973693;28;20554;-87
2021/01/05 03:26:43;;;;;;;30.40;16.77;;;;;;;;;;4966607;28;20662;-87
2021/01/05 03:30:12;;;;;;;28.77;15.17;;;;;;;;;;4973171;28;20629;-86
2021/01/05 03:33:34;;;;;;;33.83;16.60;;;;;;;;;;4981919;28;20561;-86
2021/01/05 03:36:57;;;;;;;28.37;14.57;;;;;;;;;;4957213;28;20653;-86
2021/01/05 03:40:20;;;;;;;29.67;14.93;;;;;;;;;;4977613;28;20594;-86
2021/01/05 03:43:43;;;;;;;27.50;15.40;;;;;;;;;;4966159;28;20598;-86
2021/01/05 03:47:05;;;;;;;30.03;14.93;;;;;;;;;;4971906;28;21005;-86
2021/01/05 03:50:28;;;;;;;32.10;15.03;;;;;;;;;;4971119;28;20641;-86
2021/01/05 03:53:50;;;;;;;27.53;14.00;;;;;;;;;;4987623;28;20553;-86
2021/01/05 03:57:33;;;;;;;27.33;14.33;;;;;;;;;;4916162;29;20595;-86
2021/01/05 04:00:55;;;;;;;26.60;14.07;;;;;;;;;;4925797;28;20600;-86
2021/01/05 04:03:59;;;;;;;30.40;14.63;;;;;;;;;;4965676;28;20543;-86
2021/01/05 04:07:03;;;;;;;28.00;15.10;;;;;;;;;;4959563;28;21238;-86
2021/01/05 04:10:09;;;;;;;31.30;16.73;;;;;;;;;;4973361;28;20601;-86
2021/01/05 04:13:13;;;;;;;32.23;16.93;;;;;;;;;;4962579;28;20593;-86
2021/01/05 04:16:17;;;;;;;27.67;15.67;;;;;;;;;;4962351;28;21230;-86
2021/01/05 04:19:21;;;;;;;26.60;14.73;;;;;;;;;;4962152;28;20601;-86
2021/01/05 04:22:26;;;;;;;31.33;16.57;;;;;;;;;;4984589;28;20550;-86
2021/01/05 04:25:30;;;;;;;31.10;15.73;;;;;;;;;;4961568;28;21032;-86
2021/01/05 04:28:34;;;;;;;31.17;15.00;;;;;;;;;;4972891;28;20589;-86
2021/01/05 04:31:40;;;;;;;30.57;15.57;;;;;;;;;;4973899;28;20598;-86
2021/01/05 04:34:44;;;;;;;27.07;14.60;;;;;;;;;;4950376;28;21202;-86
2021/01/05 04:37:49;;;;;;;28.77;13.83;;;;;;;;;;4954029;28;20608;-86
2021/01/05 04:40:54;;;;;;;23.67;12.93;;;;;;;;;;4983813;28;20593;-86
2021/01/05 04:44:01;;;;;;;30.70;15.03;;;;;;;;;;4961973;28;20546;-86
2021/01/05 04:47:33;;;;;;;25.80;13.57;;;;;;;;;;4972759;28;20657;-86
2021/01/05 04:50:51;;;;;;;27.93;12.37;;;;;;;;;;4961980;28;20605;-86
2021/01/05 04:54:20;;;;;;;23.83;12.23;;;;;;;;;;4971822;28;20617;-86
2021/01/05 04:57:29;;;;;;;30.93;13.30;;;;;;;;;;4983524;28;20585;-86
2021/01/05 05:00:35;;;;;;;25.40;13.43;;;;;;;;;;4958330;28;20910;-86
2021/01/05 05:03:49;;;;;;;26.63;12.47;;;;;;;;;;4972754;28;20558;-86
2021/01/05 05:07:01;;;;;;;23.30;12.13;;;;;;;;;;4972359;28;20645;-86
2021/01/05 05:10:12;;;;;;;24.03;12.60;;;;;;;;;;4972414;28;20925;-86
2021/01/05 05:13:32;;;;;;;27.87;14.00;;;;;;;;;;4984026;28;20530;-86
2021/01/05 05:17:10;;;;;;;25.63;13.03;;;;;;;;;;4957545;28;20653;-86
2021/01/05 05:20:26;;;;;;;30.00;12.00;;;;;;;;;;4960743;28;20601;-86
2021/01/05 05:23:48;;;;;;;27.03;12.53;;;;;;;;;;4982797;28;20614;-86
2021/01/05 05:27:04;;;;;;;25.40;12.00;;;;;;;;;;5008110;23;20680;-86
2021/01/05 05:30:12;;;;;;;22.77;11.87;;;;;;;;;;4992273;28;20598;-86
2021/01/05 05:33:30;;;;;;;23.50;12.97;;;;;;;;;;4993539;28;20547;-87
2021/01/05 05:36:41;;;;;;;23.33;12.23;;;;;;;;;;4992589;28;20644;-86
2021/01/05 05:40:04;;;;;;;27.67;13.03;;;;;;;;;;4997544;28;20587;-87
2021/01/05 05:43:30;;;;;;;23.67;11.73;;;;;;;;;;5013237;28;20587;-86
2021/01/05 05:46:44;;;;;;;24.47;13.03;;;;;;;;;;5000532;28;20615;-86
2021/01/05 05:50:07;;;;;;;30.67;12.90;;;;;;;;;;4999239;28;20611;-86
2021/01/05 05:53:17;;;;;;;26.03;12.17;;;;;;;;;;5013661;28;20589;-87
2021/01/05 05:57:06;;;;;;;25.47;12.67;;;;;;;;;;4992479;28;20661;-87
2021/01/05 06:00:36;;;;;;;29.13;14.10;;;;;;;;;;5003138;28;21149;-86
2021/01/05 06:03:41;;;;;;;34.73;14.33;;;;;;;;;;4997617;28;20997;-86
2021/01/05 06:06:45;;;;;;;26.27;12.50;;;;;;;;;;5019625;28;20631;-86
2021/01/05 06:09:49;;;;;;;31.87;13.83;;;;;;;;;;5017063;28;20592;-86
2021/01/05 06:12:54;;;;;;;34.03;13.93;;;;;;;;;;4991577;28;20597;-87
2021/01/05 06:15:58;;;;;;;24.80;12.53;;;;;;;;;;4991101;28;21260;-87
2021/01/05 06:19:02;;;;;;;27.03;12.87;;;;;;;;;;4983847;28;20635;-86
2021/01/05 06:22:07;;;;;;;25.77;11.60;;;;;;;;;;4980549;28;20533;-87
2021/01/05 06:25:13;;;;;;;26.03;13.17;;;;;;;;;;4991552;28;20541;-87
2021/01/05 06:28:17;;;;;;;29.17;13.93;;;;;;;;;;5008679;28;20591;-87
2021/01/05 06:31:21;;;;;;;27.73;13.63;;;;;;;;;;4992849;28;20631;-85
2021/01/05 06:34:25;;;;;;;29.60;14.30;;;;;;;;;;4990904;28;20604;-86
2021/01/05 06:37:30;;;;;;;24.93;12.60;;;;;;;;;;4979561;28;21208;-86
2021/01/05 06:40:34;;;;;;;29.43;13.20;;;;;;;;;;5011774;28;20623;-86
2021/01/05 06:43:38;;;;;;;32.83;14.47;;;;;;;;;;5021736;28;20599;-87
2021/01/05 06:46:42;;;;;;;29.43;14.30;;;;;;;;;;5005102;28;20663;-86
2021/01/05 06:49:47;;;;;;;30.93;13.17;;;;;;;;;;5005521;28;20640;-86
2021/01/05 06:52:51;;;;;;;31.23;13.37;;;;;;;;;;4990811;28;20607;-86
2021/01/05 06:55:56;;;;;;;29.43;12.97;;;;;;;;;;4990908;28;20623;-86
2021/01/05 06:59:00;;;;;;;29.60;12.80;;;;;;;;;;4989683;28;20618;-87
2021/01/05 07:02:05;;;;;;;30.73;14.00;;;;;;;;;;5010503;28;20614;-87
2021/01/05 07:05:10;;;;;;;27.30;13.00;;;;;;;;;;5010487;28;20543;-86
2021/01/05 07:08:14;;;;;;;32.93;14.50;;;;;;;;;;4997717;28;21171;-87
2021/01/05 07:11:19;;;;;;;29.10;13.07;;;;;;;;;;4999460;28;20598;-86
2021/01/05 07:14:25;;;;;;;30.83;15.00;;;;;;;;;;4998771;28;20547;-86
2021/01/05 07:17:29;;;;;;;34.20;15.00;;;;;;;;;;5006565;28;20673;-87
2021/01/05 07:20:33;;;;;;;34.27;15.23;;;;;;;;;;5001562;28;20622;-87
2021/01/05 07:23:37;;;;;;;29.20;14.70;;;;;;;;;;5013640;28;20559;-87
2021/01/05 07:26:48;;;;;;;34.37;15.17;;;;;;;;;;4994356;28;20638;-86
2021/01/05 07:29:53;;;;;;;29.43;14.37;;;;;;;;;;4995012;28;20552;-87
2021/01/05 07:32:57;;;;;;;32.67;15.30;;;;;;;;;;4994386;28;20970;-87
2021/01/05 07:36:03;;;;;;;29.80;14.13;;;;;;;;;;4994160;28;21002;-86
2021/01/05 07:39:17;;;;;;;30.73;14.17;;;;;;;;;;5005663;28;21009;-86
2021/01/05 07:42:22;;;;;;;33.43;14.70;;;;;;;;;;5006461;28;20551;-87
2021/01/05 07:45:27;;;;;;;30.30;13.50;;;;;;;;;;4995446;28;20541;-87
2021/01/05 07:48:31;;;;;;;30.13;14.23;;;;;;;;;;4997450;28;20888;-88
2021/01/05 07:51:35;;;;;;;32.07;14.03;;;;;;;;;;5008185;28;20596;-88
2021/01/05 07:54:39;;;;;;;35.57;15.40;;;;;;;;;;4997361;28;20557;-88
2021/01/05 07:57:44;;;;;;;28.70;14.20;;;;;;;;;;4997670;28;20895;-87
2021/01/05 08:00:48;;;;;;;34.13;14.53;;;;;;;;;;5011685;28;20544;-87
2021/01/05 08:03:52;;;;;;;36.40;15.40;;;;;;;;;;5012723;28;20533;-87
2021/01/05 08:06:58;;;;;;;32.23;14.00;;;;;;;;;;5010431;28;20620;-86
2021/01/05 08:10:03;;;;;;;32.70;14.37;;;;;;;;;;4993477;28;20913;-86
2021/01/05 08:13:10;;;;;;;32.30;14.37;;;;;;;;;;4993504;28;20956;-86
2021/01/05 08:16:15;;;;;;;31.00;14.57;;;;;;;;;;4993859;28;20936;-86
2021/01/05 08:19:19;;;;;;;32.80;14.43;;;;;;;;;;4982283;28;20552;-86
2021/01/05 08:22:23;;;;;;;36.43;15.73;;;;;;;;;;5003981;28;20580;-85
2021/01/05 08:25:30;;;;;;;36.13;15.57;;;;;;;;;;5015394;28;20619;-86
2021/01/05 08:28:34;;;;;;;36.07;15.60;;;;;;;;;;5004363;28;20595;-86
2021/01/05 08:31:42;;;;;;;32.63;15.70;;;;;;;;;;4995814;28;20623;-86
2021/01/05 08:34:46;;;;;;;32.70;16.00;;;;;;;;;;5013115;28;20552;-86
2021/01/05 08:37:53;;;;;;;32.33;15.63;;;;;;;;;;5013175;28;20541;-86
2021/01/05 08:40:57;;;;;;;30.73;15.40;;;;;;;;;;4991948;28;20584;-86
2021/01/05 08:44:01;;;;;;;31.47;15.03;;;;;;;;;;5004198;28;20553;-86
2021/01/05 08:47:06;;;;;;;32.53;15.30;;;;;;;;;;4992960;28;20640;-85
2021/01/05 08:50:15;;;;;;;31.00;14.17;;;;;;;;;;4984329;28;20964;-86
2021/01/05 08:53:20;;;;;;;29.20;15.20;;;;;;;;;;5012123;28;20635;-86
2021/01/05 08:56:27;;;;;;;34.10;14.93;;;;;;;;;;5023934;28;20627;-86
2021/01/05 08:59:30;;;;;;;27.63;13.97;;;;;;;;;;4997668;28;21180;-86
2021/01/05 09:02:35;;;;;;;27.37;14.27;;;;;;;;;;4995770;28;20625;-85
2021/01/05 09:05:40;;;;;;;29.43;13.60;;;;;;;;;;4992649;28;21096;-86
2021/01/05 09:08:46;;;;;;;26.97;13.20;;;;;;;;;;5009861;28;20583;-86
2021/01/05 09:11:56;;;;;;;29.10;13.70;;;;;;;;;;5015189;28;20544;-85
2021/01/05 09:15:00;;;;;;;25.37;12.23;;;;;;;;;;5015311;28;20533;-85
2021/01/05 09:18:06;;;;;;;26.83;12.87;;;;;;;;;;5014564;28;20588;-85
2021/01/05 09:21:10;;;;;;;23.97;12.37;;;;;;;;;;5014370;28;20587;-85
2021/01/05 09:24:14;;;;;;;28.30;12.73;;;;;;;;;;5003371;28;20591;-86
2021/01/05 09:27:19;;;;;;;28.43;13.17;;;;;;;;;;5002415;28;20631;-86
2021/01/05 09:30:23;;;;;;;27.83;13.53;;;;;;;;;;4991355;28;20600;-85
2021/01/05 09:33:27;;;;;;;27.50;13.40;;;;;;;;;;4995766;28;20636;-86
2021/01/05 09:36:34;;;;;;;22.37;12.10;;;;;;;;;;5006229;28;20628;-85
2021/01/05 09:39:38;;;;;;;27.00;12.50;;;;;;;;;;4994602;28;20556;-86
2021/01/05 09:42:43;;;;;;;24.77;11.90;;;;;;;;;;5006769;28;20605;-86
2021/01/05 09:45:47;;;;;;;25.20;12.87;;;;;;;;;;5006805;28;20652;-86
2021/01/05 09:48:52;;;;;;;24.87;12.50;;;;;;;;;;4985371;28;20552;-86
2021/01/05 09:52:00;;;;;;;27.90;12.40;;;;;;;;;;4984459;28;20541;-86
2021/01/05 09:55:07;;;;;;;27.63;13.53;;;;;;;;;;4996207;28;20561;-85
2021/01/05 09:58:11;;;;;;;25.43;12.37;;;;;;;;;;4985357;28;20545;-85
2021/01/05 10:01:26;;;;;;;22.30;11.60;;;;;;;;;;4996787;28;20544;-85
2021/01/05 10:04:30;;;;;;;23.27;12.43;;;;;;;;;;4996162;28;20596;-86
2021/01/05 10:07:34;;;;;;;23.73;12.50;;;;;;;;;;4984705;28;20979;-86
2021/01/05 10:10:38;;;;;;;25.73;12.20;;;;;;;;;;4983921;28;20541;-85
2021/01/05 10:13:42;;;;;;;22.03;12.13;;;;;;;;;;4998119;28;20592;-86
2021/01/05 10:16:56;;;;;;;23.27;11.87;;;;;;;;;;4998276;28;20639;-87
2021/01/05 10:20:01;;;;;;;24.40;12.33;;;;;;;;;;4999334;28;20611;-86
2021/01/05 10:23:06;;;;;;;25.93;12.90;;;;;;;;;;5002898;28;20593;-87
2021/01/05 10:26:12;;;;;;;24.37;11.90;;;;;;;;;;5015501;28;20643;-89
2021/01/05 10:29:16;;;;;;;23.07;11.83;;;;;;;;;;4996690;28;20592;-88
2021/01/05 10:32:22;;;;;;;26.03;12.90;;;;;;;;;;4999945;28;20631;-87
2021/01/05 10:35:26;;;;;;;24.03;13.33;;;;;;;;;;4999895;28;20931;-88
2021/01/05 11:45:58;;;;;;;34.77;17.33;;;;;;;;;;5089957;28;20611;-75
2021/01/05 11:49:02;;;;;;;36.83;18.30;;;;;;;;;;5073804;28;20656;-75
2021/01/05 11:52:06;;;;;;;33.57;17.30;;;;;;;;;;4972755;28;20626;-75
2021/01/05 11:55:11;;;;;;;33.03;18.03;;;;;;;;;;4873968;29;735946;-75
2021/01/05 11:58:15;;;;;;;34.40;16.60;;;;;;;;;;4738661;29;20211;-75
2021/01/05 12:01:20;;;;;;;31.97;16.50;;;;;;;;;;4707246;30;20623;-75
2021/01/05 12:04:24;;;;;;;29.60;15.77;;;;;;;;;;4697416;30;20619;-74
2021/01/05 12:07:28;;;;;;;32.50;15.87;;;;;;;;;;4706305;30;20966;-74
2021/01/05 12:10:32;;;;;;;31.73;16.53;;;;;;;;;;4697453;30;20631;-74
2021/01/05 12:13:36;;;;;;;32.70;16.50;;;;;;;;;;4697311;30;21097;-74
2021/01/05 12:16:42;;;;;;;32.53;15.93;;;;;;;;;;4696994;30;20572;-75
2021/01/05 12:19:46;;;;;;;31.77;15.70;;;;;;;;;;4696972;30;20631;-75
2021/01/05 12:22:51;;;;;;;30.33;15.57;;;;;;;;;;4696860;30;20962;-74
2021/01/05 12:25:55;;;;;;;29.20;14.97;;;;;;;;;;4706244;30;20576;-75
2021/01/05 12:29:04;;;;;;;28.40;15.30;;;;;;;;;;4696839;30;20716;-74
2021/01/05 12:32:10;;;;;;;33.30;15.03;;;;;;;;;;4706035;30;20573;-75
2021/01/05 12:35:14;;;;;;;33.23;16.13;;;;;;;;;;4697005;30;20560;-74
2021/01/05 12:38:19;;;;;;;33.40;16.90;;;;;;;;;;4706164;30;20560;-74
2021/01/05 12:41:50;;;;;;;33.23;16.87;;;;;;;;;;4686855;30;20573;-74
2021/01/05 12:44:55;;;;;;;33.87;16.27;;;;;;;;;;4685308;30;20556;-74
2021/01/05 12:47:59;;;;;;;36.10;17.50;;;;;;;;;;4684976;30;20561;-75
2021/01/05 12:51:04;;;;;;;28.93;15.33;;;;;;;;;;4684952;30;20545;-74
2021/01/05 12:54:11;;;;;;;28.73;14.50;;;;;;;;;;4694420;30;20556;-75
2021/01/05 12:57:17;;;;;;;28.67;14.50;;;;;;;;;;4749262;29;20620;-75
2021/01/05 13:00:22;;;;;;;25.03;13.77;;;;;;;;;;4816722;29;20979;-75
2021/01/05 13:03:26;;;;;;;30.73;16.13;;;;;;;;;;4826198;29;20553;-74
2021/01/05 13:06:31;;;;;;;29.43;15.13;;;;;;;;;;4835971;29;20550;-74
2021/01/05 13:09:36;;;;;;;30.53;13.30;;;;;;;;;;4825923;29;20669;-74
2021/01/05 13:12:42;;;;;;;32.43;13.97;;;;;;;;;;4825921;29;20954;-75
2021/01/05 13:15:46;;;;;;;29.70;15.27;;;;;;;;;;4826251;29;20558;-74
2021/01/05 13:18:55;;;;;;;31.40;14.97;;;;;;;;;;4826143;29;20880;-74
2021/01/05 13:21:59;;;;;;;24.87;14.00;;;;;;;;;;4836060;29;20943;-74
2021/01/05 13:25:06;;;;;;;27.83;14.33;;;;;;;;;;4825862;29;21086;-75
2021/01/05 13:28:10;;;;;;;26.77;13.73;;;;;;;;;;4825857;29;21082;-75
2021/01/05 13:31:14;;;;;;;31.47;14.87;;;;;;;;;;4826011;29;20593;-74
2021/01/05 13:34:22;;;;;;;30.10;15.07;;;;;;;;;;4826090;29;20554;-74
2021/01/05 13:37:26;;;;;;;29.10;15.10;;;;;;;;;;4835725;29;20557;-74
2021/01/05 13:40:30;;;;;;;25.23;13.67;;;;;;;;;;4825925;29;20625;-74
2021/01/05 13:43:34;;;;;;;25.87;13.73;;;;;;;;;;4825632;29;20546;-75
2021/01/05 13:46:40;;;;;;;26.00;13.87;;;;;;;;;;4835420;29;20562;-74
2021/01/05 13:49:44;;;;;;;26.90;13.43;;;;;;;;;;4835456;29;20660;-75
2021/01/05 13:52:50;;;;;;;27.17;13.97;;;;;;;;;;4825108;29;20554;-74
2021/01/05 13:55:54;;;;;;;26.93;13.67;;;;;;;;;;4832936;29;559124;-74
2021/01/05 13:58:59;;;;;;;26.57;15.70;;;;;;;;;;4961279;28;20645;-74
2021/01/05 14:02:05;;;;;;;42.13;27.37;;;;;;;;;;4995245;28;20542;-74
2021/01/05 14:05:10;;;;;;;43.73;21.80;;;;;;;;;;4995363;28;20541;-74
2021/01/05 14:08:14;;;;;;;43.63;29.50;;;;;;;;;;4994826;28;20545;-74
2021/01/05 14:11:20;;;;;;;32.40;18.07;;;;;;;;;;4994394;28;21077;-74
2021/01/05 14:14:26;;;;;;;31.53;15.30;;;;;;;;;;4995050;28;20538;-75
2021/01/05 14:17:30;;;;;;;30.60;15.00;;;;;;;;;;4994789;28;20554;-75
2021/01/05 14:20:34;;;;;;;28.73;14.60;;;;;;;;;;4995084;28;20629;-74
2021/01/05 14:23:38;;;;;;;28.60;14.73;;;;;;;;;;4993747;28;20596;-74
2021/01/05 14:26:43;;;;;;;29.07;15.07;;;;;;;;;;4993963;28;20565;-75
2021/01/05 14:29:47;;;;;;;29.47;15.13;;;;;;;;;;4992136;28;20649;-75
2021/01/05 14:32:51;;;;;;;28.67;16.50;;;;;;;;;;4993264;28;20593;-75
2021/01/05 14:35:55;;;;;;;28.87;14.40;;;;;;;;;;4993203;28;20911;-75
2021/01/05 14:39:01;;;;;;;30.40;15.77;;;;;;;;;;4993263;28;20632;-75
2021/01/05 14:42:07;;;;;;;24.97;14.13;;;;;;;;;;4994088;28;20601;-75
2021/01/05 14:45:12;;;;;;;32.77;14.97;;;;;;;;;;4993612;28;21101;-75
2021/01/05 14:48:16;;;;;;;31.50;16.47;;;;;;;;;;4993472;28;20561;-75
2021/01/05 14:51:29;;;;;;;30.03;15.37;;;;;;;;;;4982411;28;20561;-75
2021/01/05 14:54:34;;;;;;;29.90;15.07;;;;;;;;;;4992418;28;20557;-74
2021/01/05 14:57:38;;;;;;;31.23;15.23;;;;;;;;;;4997417;28;20611;-75
2021/01/05 15:00:42;;;;;;;31.93;14.60;;;;;;;;;;5052536;28;20626;-75
2021/01/05 15:03:48;;;;;;;30.87;15.23;;;;;;;;;;5051474;28;20591;-75
2021/01/05 15:06:56;;;;;;;28.13;15.30;;;;;;;;;;5053008;28;20555;-75
2021/01/05 15:10:03;;;;;;;31.77;15.60;;;;;;;;;;5051933;28;21217;-75
2021/01/05 15:13:07;;;;;;;32.60;16.00;;;;;;;;;;5053313;28;20925;-74
2021/01/05 15:16:11;;;;;;;29.97;15.53;;;;;;;;;;5052278;28;20550;-75
2021/01/05 15:19:17;;;;;;;27.07;14.40;;;;;;;;;;5051935;28;20622;-75
2021/01/05 15:22:22;;;;;;;32.20;16.17;;;;;;;;;;5051377;28;20940;-75
2021/01/05 15:25:26;;;;;;;36.07;20.17;;;;;;;;;;5052225;28;21098;-75
2021/01/05 15:28:31;;;;;;;35.93;19.43;;;;;;;;;;5052192;28;20547;-74
2021/01/05 15:31:39;;;;;;;31.60;16.37;;;;;;;;;;5039938;28;20551;-75
2021/01/05 15:34:43;;;;;;;27.40;14.93;;;;;;;;;;5051771;28;20551;-74
2021/01/05 15:37:48;;;;;;;29.67;15.23;;;;;;;;;;5052794;28;20539;-74
2021/01/05 15:40:52;;;;;;;32.70;15.63;;;;;;;;;;5052998;28;20960;-74
2021/01/05 15:43:56;;;;;;;28.50;15.57;;;;;;;;;;5051973;28;21063;-74
2021/01/05 15:47:03;;;;;;;28.83;14.63;;;;;;;;;;5052674;28;20598;-74
2021/01/05 15:50:08;;;;;;;28.33;14.13;;;;;;;;;;5051890;28;20646;-75
2021/01/05 15:53:14;;;;;;;31.43;15.63;;;;;;;;;;5052923;28;20543;-75
2021/01/05 15:56:25;;;;;;;29.50;15.80;;;;;;;;;;5040098;28;20617;-75
2021/01/05 15:59:29;;;;;;;32.77;18.63;;;;;;;;;;5020674;28;20624;-74
2021/01/05 16:02:34;;;;;;;40.13;21.03;;;;;;;;;;5020814;28;21059;-75
2021/01/05 16:05:38;;;;;;;33.63;16.90;;;;;;;;;;5020468;28;20591;-75
2021/01/05 16:08:42;;;;;;;34.97;17.67;;;;;;;;;;5020652;28;20590;-75
2021/01/05 16:11:50;;;;;;;40.30;21.97;;;;;;;;;;5032544;28;20595;-75
2021/01/05 16:14:54;;;;;;;45.70;25.73;;;;;;;;;;5032603;28;20603;-75
2021/01/05 16:17:58;;;;;;;36.87;18.47;;;;;;;;;;5035449;28;20602;-74
2021/01/05 16:21:03;;;;;;;30.90;15.90;;;;;;;;;;5036980;28;20612;-75
2021/01/05 16:24:09;;;;;;;30.87;15.93;;;;;;;;;;5036440;28;20547;-75
2021/01/05 16:27:13;;;;;;;28.33;14.70;;;;;;;;;;5036406;28;20544;-75
2021/01/05 16:30:24;;;;;;;28.20;14.20;;;;;;;;;;5036261;28;20647;-75
2021/01/05 16:33:29;;;;;;;27.43;13.43;;;;;;;;;;5023798;28;20591;-74
2021/01/05 16:36:33;;;;;;;25.17;13.90;;;;;;;;;;5035933;28;20547;-74
2021/01/05 16:39:37;;;;;;;28.13;15.30;;;;;;;;;;5036054;28;20626;-74
2021/01/05 16:42:42;;;;;;;26.17;14.13;;;;;;;;;;5023956;28;20949;-75
2021/01/05 16:45:46;;;;;;;25.50;13.50;;;;;;;;;;5036138;28;21072;-75
2021/01/05 16:48:50;;;;;;;29.67;15.20;;;;;;;;;;5035620;28;21147;-75
2021/01/05 16:51:54;;;;;;;24.47;14.33;;;;;;;;;;5035882;28;21143;-75
2021/01/05 16:54:58;;;;;;;28.37;14.50;;;;;;;;;;5035544;28;20603;-75
2021/01/05 16:58:03;;;;;;;42.37;21.10;;;;;;;;;;5042085;28;20613;-75
2021/01/05 17:01:07;;;;;;;34.23;18.67;;;;;;;;;;5055626;28;20590;-74
2021/01/05 17:04:12;;;;;;;32.03;16.57;;;;;;;;;;5055260;28;20598;-75
2021/01/05 17:07:16;;;;;;;31.00;16.07;;;;;;;;;;5055868;28;20543;-74
2021/01/05 17:10:22;;;;;;;38.90;20.93;;;;;;;;;;5055372;28;20653;-74
2021/01/05 17:13:25;;;;;;;36.23;17.43;;;;;;;;;;5042783;28;20602;-75
2021/01/05 17:16:30;;;;;;;30.97;15.87;;;;;;;;;;5055346;28;20547;-75
2021/01/05 17:19:34;;;;;;;33.43;16.97;;;;;;;;;;5055218;28;20622;-74
2021/01/05 17:22:38;;;;;;;29.00;16.63;;;;;;;;;;5055139;28;20543;-75
2021/01/05 17:25:46;;;;;;;26.67;14.90;;;;;;;;;;5055109;28;20555;-74
2021/01/05 17:28:51;;;;;;;30.03;15.47;;;;;;;;;;5042804;28;20539;-75
2021/01/05 17:31:55;;;;;;;28.77;15.03;;;;;;;;;;5054686;28;20594;-74
2021/01/05 17:35:00;;;;;;;30.93;15.50;;;;;;;;;;5055413;28;20539;-75
2021/01/05 17:38:08;;;;;;;31.70;15.50;;;;;;;;;;5054814;28;20539;-75
2021/01/05 17:41:13;;;;;;;26.87;14.33;;;;;;;;;;5055040;28;20543;-75
2021/01/05 17:44:17;;;;;;;27.87;14.80;;;;;;;;;;5054534;28;20622;-74
2021/01/05 17:47:21;;;;;;;30.23;15.73;;;;;;;;;;5042525;28;20555;-75
2021/01/05 17:50:27;;;;;;;29.73;15.50;;;;;;;;;;5042421;28;20650;-75
2021/01/05 17:53:31;;;;;;;32.73;16.93;;;;;;;;;;5054643;28;20543;-75
2021/01/05 17:56:36;;;;;;;35.43;17.07;;;;;;;;;;5069035;28;20605;-75
2021/01/05 17:59:41;;;;;;;89.00;38.87;;;;;;;;;;5074482;28;20621;-75
2021/01/05 18:02:46;;;;;;;53.30;24.53;;;;;;;;;;5074207;28;20550;-74
2021/01/05 18:05:50;;;;;;;32.77;16.97;;;;;;;;;;5074367;28;20542;-74
2021/01/05 18:08:55;;;;;;;32.03;15.87;;;;;;;;;;5074806;28;21046;-74
2021/01/05 18:11:59;;;;;;;30.03;15.43;;;;;;;;;;5074385;28;20585;-75
2021/01/05 18:15:05;;;;;;;28.70;15.93;;;;;;;;;;5074196;28;21077;-74
2021/01/05 18:18:10;;;;;;;47.43;27.37;;;;;;;;;;5073861;28;20551;-74
2021/01/05 18:21:14;;;;;;;47.73;30.27;;;;;;;;;;5061762;28;20534;-75
2021/01/05 18:24:18;;;;;;;43.40;25.27;;;;;;;;;;5074002;28;20542;-75
2021/01/05 18:27:22;;;;;;;34.73;20.60;;;;;;;;;;5061411;28;21152;-74
2021/01/05 18:30:30;;;;;;;35.83;18.47;;;;;;;;;;5073960;28;20621;-74
2021/01/05 18:33:34;;;;;;;31.50;17.20;;;;;;;;;;5073888;28;21148;-74
2021/01/05 18:36:38;;;;;;;30.10;16.03;;;;;;;;;;5073540;28;20546;-74
2021/01/05 18:39:43;;;;;;;34.23;18.53;;;;;;;;;;5073157;28;20617;-74
2021/01/05 18:42:51;;;;;;;32.60;17.73;;;;;;;;;;5073692;28;20876;-74
2021/01/05 18:45:55;;;;;;;44.43;19.57;;;;;;;;;;5073464;28;20601;-74
2021/01/05 18:49:00;;;;;;;38.00;19.00;;;;;;;;;;5061231;28;20980;-74
2021/01/05 18:52:06;;;;;;;36.10;17.17;;;;;;;;;;5073165;28;20645;-74
2021/01/05 18:55:11;;;;;;;36.03;17.13;;;;;;;;;;5073403;28;21128;-74
2021/01/05 18:58:17;;;;;;;34.37;18.00;;;;;;;;;;5061141;28;20538;-74
2021/01/05 19:01:21;;;;;;;34.17;18.27;;;;;;;;;;5061085;28;20542;-74
2021/01/05 19:04:25;;;;;;;36.03;16.63;;;;;;;;;;5073107;28;20594;-74
2021/01/05 19:07:30;;;;;;;34.83;17.00;;;;;;;;;;5061253;28;20542;-74
2021/01/05 19:10:35;;;;;;;33.77;16.77;;;;;;;;;;5061320;28;20621;-74
2021/01/05 19:13:39;;;;;;;39.13;18.23;;;;;;;;;;5073309;28;20534;-74
2021/01/05 19:16:45;;;;;;;38.37;17.60;;;;;;;;;;5060585;28;20554;-74
2021/01/05 19:19:49;;;;;;;37.73;18.37;;;;;;;;;;5060794;28;20962;-74
2021/01/05 19:22:55;;;;;;;34.93;17.20;;;;;;;;;;5073449;28;20539;-73